sensor_id;sensor_type;location;lat;lon;timestamp;P1;durP1;ratioP1;P2;durP2;ratioP2
47555;SDS011;33291;46.222;26.460;2022-08-24T00:00:22;9.70;;;2.33;;
47555;SDS011;33291;46.222;26.460;2022-08-24T00:02:48;4.55;;;2.58;;
47555;SDS011;33291;46.222;26.460;2022-08-24T00:05:14;7.80;;;2.92;;
47555;SDS011;33291;46.222;26.460;2022-08-24T00:07:40;5.63;;;2.60;;
47555;SDS011;33291;46.222;26.460;2022-08-24T00:10:07;4.65;;;2.78;;
47555;SDS011;33291;46.222;26.460;2022-08-24T00:12:34;12.13;;;3.35;;
47555;SDS011;33291;46.222;26.460;2022-08-24T00:15:00;4.45;;;2.75;;
47555;SDS011;33291;46.222;26.460;2022-08-24T00:17:26;13.13;;;2.45;;
47555;SDS011;33291;46.222;26.460;2022-08-24T00:19:52;9.38;;;2.42;;
47555;SDS011;33291;46.222;26.460;2022-08-24T00:22:18;6.18;;;2.85;;
47555;SDS011;33291;46.222;26.460;2022-08-24T00:24:44;4.90;;;2.15;;
47555;SDS011;33291;46.222;26.460;2022-08-24T00:27:10;3.22;;;2.08;;
47555;SDS011;33291;46.222;26.460;2022-08-24T00:29:36;6.10;;;2.40;;
47555;SDS011;33291;46.222;26.460;2022-08-24T00:32:02;5.72;;;2.30;;
47555;SDS011;33291;46.222;26.460;2022-08-24T00:34:28;3.83;;;2.45;;
47555;SDS011;33291;46.222;26.460;2022-08-24T00:36:54;4.43;;;2.35;;
47555;SDS011;33291;46.222;26.460;2022-08-24T00:39:21;8.35;;;2.78;;
47555;SDS011;33291;46.222;26.460;2022-08-24T00:41:48;6.15;;;2.80;;
47555;SDS011;33291;46.222;26.460;2022-08-24T00:44:15;5.50;;;2.45;;
47555;SDS011;33291;46.222;26.460;2022-08-24T00:46:58;7.97;;;2.33;;
47555;SDS011;33291;46.222;26.460;2022-08-24T00:49:43;5.72;;;2.55;;
47555;SDS011;33291;46.222;26.460;2022-08-24T00:55:33;5.07;;;2.88;;
47555;SDS011;33291;46.222;26.460;2022-08-24T00:57:58;9.13;;;3.20;;
47555;SDS011;33291;46.222;26.460;2022-08-24T01:00:27;5.75;;;2.92;;
47555;SDS011;33291;46.222;26.460;2022-08-24T01:02:59;5.03;;;2.38;;
47555;SDS011;33291;46.222;26.460;2022-08-24T01:05:29;6.65;;;2.38;;
47555;SDS011;33291;46.222;26.460;2022-08-24T01:08:00;5.60;;;2.50;;
47555;SDS011;33291;46.222;26.460;2022-08-24T01:10:28;10.07;;;3.25;;
47555;SDS011;33291;46.222;26.460;2022-08-24T01:12:58;9.48;;;2.50;;
47555;SDS011;33291;46.222;26.460;2022-08-24T01:15:32;7.05;;;2.85;;
47555;SDS011;33291;46.222;26.460;2022-08-24T01:18:02;5.03;;;2.88;;
47555;SDS011;33291;46.222;26.460;2022-08-24T01:20:49;7.35;;;2.85;;
47555;SDS011;33291;46.222;26.460;2022-08-24T01:26:06;5.15;;;3.17;;
47555;SDS011;33291;46.222;26.460;2022-08-24T01:28:34;7.35;;;2.58;;
47555;SDS011;33291;46.222;26.460;2022-08-24T01:31:04;9.57;;;3.13;;
47555;SDS011;33291;46.222;26.460;2022-08-24T01:33:31;6.18;;;3.00;;
47555;SDS011;33291;46.222;26.460;2022-08-24T01:35:59;6.53;;;2.92;;
47555;SDS011;33291;46.222;26.460;2022-08-24T01:38:44;5.78;;;2.60;;
47555;SDS011;33291;46.222;26.460;2022-08-24T01:41:11;4.70;;;2.90;;
47555;SDS011;33291;46.222;26.460;2022-08-24T01:43:37;8.20;;;3.03;;
47555;SDS011;33291;46.222;26.460;2022-08-24T01:46:02;16.90;;;3.88;;
47555;SDS011;33291;46.222;26.460;2022-08-24T01:48:28;13.82;;;3.55;;
47555;SDS011;33291;46.222;26.460;2022-08-24T01:50:53;6.13;;;2.70;;
47555;SDS011;33291;46.222;26.460;2022-08-24T01:53:19;8.38;;;3.72;;
47555;SDS011;33291;46.222;26.460;2022-08-24T01:55:45;11.52;;;3.88;;
47555;SDS011;33291;46.222;26.460;2022-08-24T01:58:11;10.73;;;3.35;;
47555;SDS011;33291;46.222;26.460;2022-08-24T02:00:37;8.73;;;3.13;;
47555;SDS011;33291;46.222;26.460;2022-08-24T02:03:03;7.75;;;3.22;;
47555;SDS011;33291;46.222;26.460;2022-08-24T02:05:29;7.20;;;3.53;;
47555;SDS011;33291;46.222;26.460;2022-08-24T02:07:55;5.00;;;2.63;;
47555;SDS011;33291;46.222;26.460;2022-08-24T02:10:21;12.43;;;3.17;;
47555;SDS011;33291;46.222;26.460;2022-08-24T02:12:47;9.88;;;3.63;;
47555;SDS011;33291;46.222;26.460;2022-08-24T02:15:25;6.53;;;2.88;;
47555;SDS011;33291;46.222;26.460;2022-08-24T02:17:56;13.68;;;3.67;;
47555;SDS011;33291;46.222;26.460;2022-08-24T02:20:22;9.82;;;3.10;;
47555;SDS011;33291;46.222;26.460;2022-08-24T02:22:49;5.32;;;2.90;;
47555;SDS011;33291;46.222;26.460;2022-08-24T02:25:16;5.97;;;3.03;;
47555;SDS011;33291;46.222;26.460;2022-08-24T02:27:42;7.35;;;2.97;;
47555;SDS011;33291;46.222;26.460;2022-08-24T02:30:08;5.97;;;2.97;;
47555;SDS011;33291;46.222;26.460;2022-08-24T02:32:34;10.15;;;3.38;;
47555;SDS011;33291;46.222;26.460;2022-08-24T02:34:59;6.45;;;3.70;;
47555;SDS011;33291;46.222;26.460;2022-08-24T02:37:25;10.05;;;3.40;;
47555;SDS011;33291;46.222;26.460;2022-08-24T02:39:51;6.78;;;3.70;;
47555;SDS011;33291;46.222;26.460;2022-08-24T02:42:16;7.68;;;3.53;;
47555;SDS011;33291;46.222;26.460;2022-08-24T02:44:42;4.25;;;3.20;;
47555;SDS011;33291;46.222;26.460;2022-08-24T02:47:08;10.15;;;3.30;;
47555;SDS011;33291;46.222;26.460;2022-08-24T02:49:34;9.68;;;3.78;;
47555;SDS011;33291;46.222;26.460;2022-08-24T02:52:00;7.88;;;3.10;;
47555;SDS011;33291;46.222;26.460;2022-08-24T02:54:25;10.70;;;3.70;;
47555;SDS011;33291;46.222;26.460;2022-08-24T02:56:51;8.60;;;3.30;;
47555;SDS011;33291;46.222;26.460;2022-08-24T02:59:18;5.13;;;3.13;;
47555;SDS011;33291;46.222;26.460;2022-08-24T03:01:44;7.30;;;3.40;;
47555;SDS011;33291;46.222;26.460;2022-08-24T03:04:10;8.27;;;3.70;;
47555;SDS011;33291;46.222;26.460;2022-08-24T03:06:36;8.18;;;3.42;;
47555;SDS011;33291;46.222;26.460;2022-08-24T03:09:01;15.05;;;3.53;;
47555;SDS011;33291;46.222;26.460;2022-08-24T03:11:27;11.38;;;2.92;;
47555;SDS011;33291;46.222;26.460;2022-08-24T03:13:53;9.63;;;3.80;;
47555;SDS011;33291;46.222;26.460;2022-08-24T03:16:19;5.03;;;2.85;;
47555;SDS011;33291;46.222;26.460;2022-08-24T03:18:45;11.30;;;3.35;;
47555;SDS011;33291;46.222;26.460;2022-08-24T03:21:10;8.95;;;3.75;;
47555;SDS011;33291;46.222;26.460;2022-08-24T03:23:36;9.45;;;3.95;;
47555;SDS011;33291;46.222;26.460;2022-08-24T03:26:02;9.15;;;3.45;;
47555;SDS011;33291;46.222;26.460;2022-08-24T03:28:28;6.03;;;3.90;;
47555;SDS011;33291;46.222;26.460;2022-08-24T03:30:53;8.73;;;3.40;;
47555;SDS011;33291;46.222;26.460;2022-08-24T03:33:19;8.10;;;3.05;;
47555;SDS011;33291;46.222;26.460;2022-08-24T03:35:45;7.93;;;3.13;;
47555;SDS011;33291;46.222;26.460;2022-08-24T03:38:11;7.82;;;3.70;;
47555;SDS011;33291;46.222;26.460;2022-08-24T03:40:37;6.18;;;3.25;;
47555;SDS011;33291;46.222;26.460;2022-08-24T03:43:04;5.68;;;2.92;;
47555;SDS011;33291;46.222;26.460;2022-08-24T03:45:30;15.20;;;4.47;;
47555;SDS011;33291;46.222;26.460;2022-08-24T03:47:56;5.25;;;2.75;;
47555;SDS011;33291;46.222;26.460;2022-08-24T03:50:22;11.02;;;3.13;;
47555;SDS011;33291;46.222;26.460;2022-08-24T03:52:48;3.83;;;2.60;;
47555;SDS011;33291;46.222;26.460;2022-08-24T03:55:14;8.70;;;3.50;;
47555;SDS011;33291;46.222;26.460;2022-08-24T03:57:40;8.70;;;3.00;;
47555;SDS011;33291;46.222;26.460;2022-08-24T04:00:07;11.07;;;3.30;;
47555;SDS011;33291;46.222;26.460;2022-08-24T04:02:34;8.35;;;3.03;;
47555;SDS011;33291;46.222;26.460;2022-08-24T04:05:00;15.63;;;3.25;;
47555;SDS011;33291;46.222;26.460;2022-08-24T04:07:26;5.15;;;3.65;;
47555;SDS011;33291;46.222;26.460;2022-08-24T04:09:52;8.38;;;3.25;;
47555;SDS011;33291;46.222;26.460;2022-08-24T04:12:17;7.00;;;3.08;;
47555;SDS011;33291;46.222;26.460;2022-08-24T04:14:43;7.20;;;3.17;;
47555;SDS011;33291;46.222;26.460;2022-08-24T04:17:08;6.80;;;3.35;;
47555;SDS011;33291;46.222;26.460;2022-08-24T04:19:36;7.18;;;3.00;;
47555;SDS011;33291;46.222;26.460;2022-08-24T04:22:21;5.47;;;3.05;;
47555;SDS011;33291;46.222;26.460;2022-08-24T04:24:47;12.10;;;4.55;;
47555;SDS011;33291;46.222;26.460;2022-08-24T04:27:13;9.63;;;5.57;;
47555;SDS011;33291;46.222;26.460;2022-08-24T04:29:39;10.23;;;5.13;;
47555;SDS011;33291;46.222;26.460;2022-08-24T04:32:04;10.32;;;5.97;;
47555;SDS011;33291;46.222;26.460;2022-08-24T04:34:31;7.40;;;4.50;;
47555;SDS011;33291;46.222;26.460;2022-08-24T04:36:57;13.02;;;4.40;;
47555;SDS011;33291;46.222;26.460;2022-08-24T04:39:23;10.68;;;4.90;;
47555;SDS011;33291;46.222;26.460;2022-08-24T04:41:48;9.57;;;4.15;;
47555;SDS011;33291;46.222;26.460;2022-08-24T04:44:14;6.35;;;3.92;;
47555;SDS011;33291;46.222;26.460;2022-08-24T04:46:39;10.00;;;3.90;;
47555;SDS011;33291;46.222;26.460;2022-08-24T04:49:05;7.35;;;3.38;;
47555;SDS011;33291;46.222;26.460;2022-08-24T04:51:31;8.82;;;4.45;;
47555;SDS011;33291;46.222;26.460;2022-08-24T04:53:56;8.20;;;4.78;;
47555;SDS011;33291;46.222;26.460;2022-08-24T04:56:22;9.02;;;3.88;;
47555;SDS011;33291;46.222;26.460;2022-08-24T04:58:49;7.60;;;5.00;;
47555;SDS011;33291;46.222;26.460;2022-08-24T05:01:17;22.15;;;4.50;;
47555;SDS011;33291;46.222;26.460;2022-08-24T05:03:45;10.98;;;4.13;;
47555;SDS011;33291;46.222;26.460;2022-08-24T05:06:14;10.55;;;3.50;;
47555;SDS011;33291;46.222;26.460;2022-08-24T05:08:41;12.45;;;4.40;;
47555;SDS011;33291;46.222;26.460;2022-08-24T05:11:07;6.68;;;4.13;;
47555;SDS011;33291;46.222;26.460;2022-08-24T05:13:34;7.65;;;3.88;;
47555;SDS011;33291;46.222;26.460;2022-08-24T05:16:04;5.22;;;3.90;;
47555;SDS011;33291;46.222;26.460;2022-08-24T05:18:31;12.70;;;4.32;;
47555;SDS011;33291;46.222;26.460;2022-08-24T05:20:57;8.20;;;4.55;;
47555;SDS011;33291;46.222;26.460;2022-08-24T05:23:24;7.68;;;3.92;;
47555;SDS011;33291;46.222;26.460;2022-08-24T05:25:50;7.18;;;3.80;;
47555;SDS011;33291;46.222;26.460;2022-08-24T05:28:16;7.40;;;3.67;;
47555;SDS011;33291;46.222;26.460;2022-08-24T05:30:42;16.42;;;4.18;;
47555;SDS011;33291;46.222;26.460;2022-08-24T05:33:07;10.02;;;3.75;;
47555;SDS011;33291;46.222;26.460;2022-08-24T05:35:37;6.93;;;4.45;;
47555;SDS011;33291;46.222;26.460;2022-08-24T05:38:03;8.93;;;4.28;;
47555;SDS011;33291;46.222;26.460;2022-08-24T05:40:30;11.00;;;4.57;;
47555;SDS011;33291;46.222;26.460;2022-08-24T05:42:56;8.00;;;3.92;;
47555;SDS011;33291;46.222;26.460;2022-08-24T05:45:22;9.80;;;4.57;;
47555;SDS011;33291;46.222;26.460;2022-08-24T05:47:47;8.32;;;3.80;;
47555;SDS011;33291;46.222;26.460;2022-08-24T05:50:13;6.47;;;3.95;;
47555;SDS011;33291;46.222;26.460;2022-08-24T05:52:38;6.63;;;3.60;;
47555;SDS011;33291;46.222;26.460;2022-08-24T05:55:04;9.25;;;3.88;;
47555;SDS011;33291;46.222;26.460;2022-08-24T05:57:31;14.23;;;4.72;;
47555;SDS011;33291;46.222;26.460;2022-08-24T05:59:58;16.02;;;4.70;;
47555;SDS011;33291;46.222;26.460;2022-08-24T06:02:23;9.57;;;3.70;;
47555;SDS011;33291;46.222;26.460;2022-08-24T06:04:49;7.82;;;3.63;;
47555;SDS011;33291;46.222;26.460;2022-08-24T06:07:14;7.35;;;3.50;;
47555;SDS011;33291;46.222;26.460;2022-08-24T06:09:41;7.28;;;3.55;;
47555;SDS011;33291;46.222;26.460;2022-08-24T06:12:09;8.73;;;4.22;;
47555;SDS011;33291;46.222;26.460;2022-08-24T06:14:36;9.80;;;4.15;;
47555;SDS011;33291;46.222;26.460;2022-08-24T06:17:02;10.30;;;4.00;;
47555;SDS011;33291;46.222;26.460;2022-08-24T06:19:30;12.48;;;4.78;;
47555;SDS011;33291;46.222;26.460;2022-08-24T06:21:56;9.50;;;4.00;;
47555;SDS011;33291;46.222;26.460;2022-08-24T06:24:23;7.40;;;3.85;;
47555;SDS011;33291;46.222;26.460;2022-08-24T06:27:09;5.75;;;3.55;;
47555;SDS011;33291;46.222;26.460;2022-08-24T06:29:51;8.65;;;3.67;;
47555;SDS011;33291;46.222;26.460;2022-08-24T06:32:18;12.63;;;3.92;;
47555;SDS011;33291;46.222;26.460;2022-08-24T06:34:46;5.18;;;3.47;;
47555;SDS011;33291;46.222;26.460;2022-08-24T06:37:11;6.65;;;3.67;;
47555;SDS011;33291;46.222;26.460;2022-08-24T06:39:37;10.13;;;4.15;;
47555;SDS011;33291;46.222;26.460;2022-08-24T06:42:03;10.55;;;4.40;;
47555;SDS011;33291;46.222;26.460;2022-08-24T06:44:29;11.77;;;4.38;;
47555;SDS011;33291;46.222;26.460;2022-08-24T06:46:56;8.75;;;4.80;;
47555;SDS011;33291;46.222;26.460;2022-08-24T06:49:21;5.75;;;3.60;;
47555;SDS011;33291;46.222;26.460;2022-08-24T06:51:47;8.90;;;4.18;;
47555;SDS011;33291;46.222;26.460;2022-08-24T06:54:13;10.10;;;4.10;;
47555;SDS011;33291;46.222;26.460;2022-08-24T06:56:38;8.32;;;3.70;;
47555;SDS011;33291;46.222;26.460;2022-08-24T06:59:04;5.22;;;3.60;;
47555;SDS011;33291;46.222;26.460;2022-08-24T07:01:30;6.28;;;3.10;;
47555;SDS011;33291;46.222;26.460;2022-08-24T07:03:56;4.80;;;3.35;;
47555;SDS011;33291;46.222;26.460;2022-08-24T07:06:22;10.55;;;3.83;;
47555;SDS011;33291;46.222;26.460;2022-08-24T07:08:49;9.70;;;3.45;;
47555;SDS011;33291;46.222;26.460;2022-08-24T07:11:16;5.93;;;3.55;;
47555;SDS011;33291;46.222;26.460;2022-08-24T07:13:43;9.48;;;3.80;;
47555;SDS011;33291;46.222;26.460;2022-08-24T07:16:10;6.70;;;4.43;;
47555;SDS011;33291;46.222;26.460;2022-08-24T07:18:36;6.82;;;3.35;;
47555;SDS011;33291;46.222;26.460;2022-08-24T07:21:02;11.25;;;4.25;;
47555;SDS011;33291;46.222;26.460;2022-08-24T07:23:28;7.00;;;3.30;;
47555;SDS011;33291;46.222;26.460;2022-08-24T07:25:54;8.00;;;3.00;;
47555;SDS011;33291;46.222;26.460;2022-08-24T07:28:20;5.75;;;3.75;;
47555;SDS011;33291;46.222;26.460;2022-08-24T07:30:45;8.48;;;3.42;;
47555;SDS011;33291;46.222;26.460;2022-08-24T07:33:11;8.77;;;3.90;;
47555;SDS011;33291;46.222;26.460;2022-08-24T07:35:37;8.82;;;3.92;;
47555;SDS011;33291;46.222;26.460;2022-08-24T07:38:03;7.35;;;3.17;;
47555;SDS011;33291;46.222;26.460;2022-08-24T07:40:30;11.80;;;3.42;;
47555;SDS011;33291;46.222;26.460;2022-08-24T07:42:57;7.32;;;3.33;;
47555;SDS011;33291;46.222;26.460;2022-08-24T07:45:23;9.10;;;3.25;;
47555;SDS011;33291;46.222;26.460;2022-08-24T07:47:50;9.40;;;3.78;;
47555;SDS011;33291;46.222;26.460;2022-08-24T07:50:17;9.73;;;3.28;;
47555;SDS011;33291;46.222;26.460;2022-08-24T07:52:44;9.45;;;3.35;;
47555;SDS011;33291;46.222;26.460;2022-08-24T07:55:09;5.75;;;2.15;;
47555;SDS011;33291;46.222;26.460;2022-08-24T07:57:37;13.98;;;3.38;;
47555;SDS011;33291;46.222;26.460;2022-08-24T08:00:06;7.43;;;2.85;;
47555;SDS011;33291;46.222;26.460;2022-08-24T08:02:35;10.43;;;2.72;;
47555;SDS011;33291;46.222;26.460;2022-08-24T08:05:02;7.95;;;2.45;;
47555;SDS011;33291;46.222;26.460;2022-08-24T08:07:28;6.40;;;2.75;;
47555;SDS011;33291;46.222;26.460;2022-08-24T08:09:55;5.88;;;2.72;;
47555;SDS011;33291;46.222;26.460;2022-08-24T08:12:20;5.53;;;2.70;;
47555;SDS011;33291;46.222;26.460;2022-08-24T08:14:46;15.13;;;2.58;;
47555;SDS011;33291;46.222;26.460;2022-08-24T08:17:12;17.23;;;2.97;;
47555;SDS011;33291;46.222;26.460;2022-08-24T08:19:39;18.63;;;3.47;;
47555;SDS011;33291;46.222;26.460;2022-08-24T08:22:06;16.23;;;3.10;;
47555;SDS011;33291;46.222;26.460;2022-08-24T08:24:50;15.50;;;3.20;;
47555;SDS011;33291;46.222;26.460;2022-08-24T08:27:16;14.20;;;2.88;;
47555;SDS011;33291;46.222;26.460;2022-08-24T08:29:41;18.00;;;3.35;;
47555;SDS011;33291;46.222;26.460;2022-08-24T08:32:08;20.05;;;3.13;;
47555;SDS011;33291;46.222;26.460;2022-08-24T08:34:38;12.90;;;3.28;;
47555;SDS011;33291;46.222;26.460;2022-08-24T08:37:04;21.80;;;3.70;;
47555;SDS011;33291;46.222;26.460;2022-08-24T08:39:30;20.50;;;3.53;;
47555;SDS011;33291;46.222;26.460;2022-08-24T08:55:07;27.15;;;3.97;;
47555;SDS011;33291;46.222;26.460;2022-08-24T09:00:26;16.70;;;4.55;;
47555;SDS011;33291;46.222;26.460;2022-08-24T09:03:14;24.55;;;3.25;;
47555;SDS011;33291;46.222;26.460;2022-08-24T09:06:01;24.92;;;4.05;;
47555;SDS011;33291;46.222;26.460;2022-08-24T09:22:44;27.35;;;3.80;;
47555;SDS011;33291;46.222;26.460;2022-08-24T09:28:11;36.20;;;4.55;;
47555;SDS011;33291;46.222;26.460;2022-08-24T09:33:22;27.42;;;4.72;;
47555;SDS011;33291;46.222;26.460;2022-08-24T10:00:54;37.08;;;4.97;;
47555;SDS011;33291;46.222;26.460;2022-08-24T10:03:48;37.85;;;5.70;;
47555;SDS011;33291;46.222;26.460;2022-08-24T10:11:58;39.00;;;4.90;;
47555;SDS011;33291;46.222;26.460;2022-08-24T10:20:22;31.95;;;5.18;;
47555;SDS011;33291;46.222;26.460;2022-08-24T10:31:09;27.05;;;5.10;;
47555;SDS011;33291;46.222;26.460;2022-08-24T10:53:38;30.85;;;3.65;;
47555;SDS011;33291;46.222;26.460;2022-08-24T10:56:12;16.58;;;3.33;;
47555;SDS011;33291;46.222;26.460;2022-08-24T11:01:15;23.67;;;3.13;;
47555;SDS011;33291;46.222;26.460;2022-08-24T11:03:58;16.83;;;2.72;;
47555;SDS011;33291;46.222;26.460;2022-08-24T11:06:31;28.20;;;3.78;;
47555;SDS011;33291;46.222;26.460;2022-08-24T11:11:35;28.42;;;3.55;;
47555;SDS011;33291;46.222;26.460;2022-08-24T11:16:46;25.10;;;3.33;;
47555;SDS011;33291;46.222;26.460;2022-08-24T11:19:31;25.67;;;3.95;;
47555;SDS011;33291;46.222;26.460;2022-08-24T11:22:03;27.67;;;3.65;;
47555;SDS011;33291;46.222;26.460;2022-08-24T11:24:51;21.73;;;3.45;;
47555;SDS011;33291;46.222;26.460;2022-08-24T11:29:59;21.80;;;3.08;;
47555;SDS011;33291;46.222;26.460;2022-08-24T11:32:28;19.75;;;3.45;;
47555;SDS011;33291;46.222;26.460;2022-08-24T11:37:56;25.13;;;3.47;;
47555;SDS011;33291;46.222;26.460;2022-08-24T11:40:39;12.18;;;2.50;;
47555;SDS011;33291;46.222;26.460;2022-08-24T11:43:19;12.68;;;2.38;;
47555;SDS011;33291;46.222;26.460;2022-08-24T11:46:01;15.80;;;2.78;;
47555;SDS011;33291;46.222;26.460;2022-08-24T12:05:11;23.67;;;3.03;;
47555;SDS011;33291;46.222;26.460;2022-08-24T12:21:52;14.15;;;2.88;;
47555;SDS011;33291;46.222;26.460;2022-08-24T12:24:24;14.73;;;2.38;;
47555;SDS011;33291;46.222;26.460;2022-08-24T12:27:00;21.48;;;3.22;;
47555;SDS011;33291;46.222;26.460;2022-08-24T12:32:20;16.70;;;3.25;;
47555;SDS011;33291;46.222;26.460;2022-08-24T12:34:54;17.40;;;2.42;;
47555;SDS011;33291;46.222;26.460;2022-08-24T12:43:03;18.33;;;2.10;;
47555;SDS011;33291;46.222;26.460;2022-08-24T12:45:33;14.45;;;2.65;;
47555;SDS011;33291;46.222;26.460;2022-08-24T12:57:03;19.20;;;3.00;;
47555;SDS011;33291;46.222;26.460;2022-08-24T12:59:53;13.30;;;3.30;;
47555;SDS011;33291;46.222;26.460;2022-08-24T13:02:25;20.52;;;3.83;;
47555;SDS011;33291;46.222;26.460;2022-08-24T13:04:57;22.95;;;2.85;;
47555;SDS011;33291;46.222;26.460;2022-08-24T13:07:30;16.17;;;3.40;;
47555;SDS011;33291;46.222;26.460;2022-08-24T13:33:26;22.52;;;4.03;;
47555;SDS011;33291;46.222;26.460;2022-08-24T13:58:54;27.58;;;3.63;;
47555;SDS011;33291;46.222;26.460;2022-08-24T14:15:12;22.27;;;4.82;;
47555;SDS011;33291;46.222;26.460;2022-08-24T14:22:59;23.27;;;4.25;;
47555;SDS011;33291;46.222;26.460;2022-08-24T14:25:33;23.75;;;4.30;;
47555;SDS011;33291;46.222;26.460;2022-08-24T14:43:52;24.02;;;4.25;;
47555;SDS011;33291;46.222;26.460;2022-08-24T14:46:45;29.95;;;4.82;;
47555;SDS011;33291;46.222;26.460;2022-08-24T14:57:59;20.67;;;3.78;;
47555;SDS011;33291;46.222;26.460;2022-08-24T15:06:24;30.52;;;4.85;;
47555;SDS011;33291;46.222;26.460;2022-08-24T15:09:07;23.13;;;3.60;;
47555;SDS011;33291;46.222;26.460;2022-08-24T15:11:36;17.27;;;3.75;;
47555;SDS011;33291;46.222;26.460;2022-08-24T15:14:06;22.35;;;3.72;;
47555;SDS011;33291;46.222;26.460;2022-08-24T15:22:28;24.92;;;3.83;;
47555;SDS011;33291;46.222;26.460;2022-08-24T15:27:58;22.58;;;3.80;;
47555;SDS011;33291;46.222;26.460;2022-08-24T15:30:33;20.13;;;4.00;;
47555;SDS011;33291;46.222;26.460;2022-08-24T15:33:14;21.92;;;3.97;;
47555;SDS011;33291;46.222;26.460;2022-08-24T15:35:46;21.90;;;5.30;;
47555;SDS011;33291;46.222;26.460;2022-08-24T15:38:24;33.42;;;4.07;;
47555;SDS011;33291;46.222;26.460;2022-08-24T15:41:14;30.00;;;4.65;;
47555;SDS011;33291;46.222;26.460;2022-08-24T15:44:02;33.97;;;4.88;;
47555;SDS011;33291;46.222;26.460;2022-08-24T15:50:07;27.52;;;5.18;;
47555;SDS011;33291;46.222;26.460;2022-08-24T15:55:30;19.15;;;3.60;;
47555;SDS011;33291;46.222;26.460;2022-08-24T16:00:47;27.35;;;3.85;;
47555;SDS011;33291;46.222;26.460;2022-08-24T16:03:51;19.88;;;4.07;;
47555;SDS011;33291;46.222;26.460;2022-08-24T16:11:30;26.45;;;4.00;;
47555;SDS011;33291;46.222;26.460;2022-08-24T16:16:58;29.00;;;4.63;;
47555;SDS011;33291;46.222;26.460;2022-08-24T16:19:30;28.23;;;4.55;;
47555;SDS011;33291;46.222;26.460;2022-08-24T16:21:58;26.67;;;5.25;;
47555;SDS011;33291;46.222;26.460;2022-08-24T16:24:34;26.00;;;5.35;;
47555;SDS011;33291;46.222;26.460;2022-08-24T16:27:05;25.10;;;4.50;;
47555;SDS011;33291;46.222;26.460;2022-08-24T16:34:40;25.63;;;4.80;;
47555;SDS011;33291;46.222;26.460;2022-08-24T16:37:07;23.75;;;4.45;;
47555;SDS011;33291;46.222;26.460;2022-08-24T16:39:33;22.38;;;3.78;;
47555;SDS011;33291;46.222;26.460;2022-08-24T16:42:00;29.38;;;5.40;;
47555;SDS011;33291;46.222;26.460;2022-08-24T16:44:31;18.55;;;3.90;;
47555;SDS011;33291;46.222;26.460;2022-08-24T16:46:59;34.55;;;5.30;;
47555;SDS011;33291;46.222;26.460;2022-08-24T16:49:25;23.63;;;4.60;;
47555;SDS011;33291;46.222;26.460;2022-08-24T16:51:51;39.38;;;5.07;;
47555;SDS011;33291;46.222;26.460;2022-08-24T16:54:16;27.83;;;4.55;;
47555;SDS011;33291;46.222;26.460;2022-08-24T16:56:43;25.70;;;5.72;;
47555;SDS011;33291;46.222;26.460;2022-08-24T16:59:16;29.25;;;5.60;;
47555;SDS011;33291;46.222;26.460;2022-08-24T17:01:48;24.65;;;4.38;;
47555;SDS011;33291;46.222;26.460;2022-08-24T17:04:14;31.98;;;5.20;;
47555;SDS011;33291;46.222;26.460;2022-08-24T17:06:40;24.58;;;4.78;;
47555;SDS011;33291;46.222;26.460;2022-08-24T17:09:06;26.88;;;5.35;;
47555;SDS011;33291;46.222;26.460;2022-08-24T17:11:32;19.63;;;5.25;;
47555;SDS011;33291;46.222;26.460;2022-08-24T17:13:58;29.58;;;6.50;;
47555;SDS011;33291;46.222;26.460;2022-08-24T17:16:23;26.10;;;5.88;;
47555;SDS011;33291;46.222;26.460;2022-08-24T17:18:49;21.80;;;5.70;;
47555;SDS011;33291;46.222;26.460;2022-08-24T17:21:15;27.65;;;5.18;;
47555;SDS011;33291;46.222;26.460;2022-08-24T17:23:41;30.17;;;5.97;;
47555;SDS011;33291;46.222;26.460;2022-08-24T17:26:08;24.23;;;5.55;;
47555;SDS011;33291;46.222;26.460;2022-08-24T17:28:38;27.05;;;6.38;;
47555;SDS011;33291;46.222;26.460;2022-08-24T17:31:06;22.73;;;5.93;;
47555;SDS011;33291;46.222;26.460;2022-08-24T17:33:33;29.33;;;5.95;;
47555;SDS011;33291;46.222;26.460;2022-08-24T17:35:59;23.70;;;5.38;;
47555;SDS011;33291;46.222;26.460;2022-08-24T17:38:26;27.40;;;5.95;;
47555;SDS011;33291;46.222;26.460;2022-08-24T17:40:53;23.38;;;5.53;;
47555;SDS011;33291;46.222;26.460;2022-08-24T17:43:18;28.55;;;5.72;;
47555;SDS011;33291;46.222;26.460;2022-08-24T17:45:44;27.40;;;5.20;;
47555;SDS011;33291;46.222;26.460;2022-08-24T17:48:10;21.63;;;5.10;;
47555;SDS011;33291;46.222;26.460;2022-08-24T17:50:42;34.17;;;6.53;;
47555;SDS011;33291;46.222;26.460;2022-08-24T17:53:08;20.63;;;5.47;;
47555;SDS011;33291;46.222;26.460;2022-08-24T17:55:34;31.65;;;6.15;;
47555;SDS011;33291;46.222;26.460;2022-08-24T17:57:59;18.70;;;5.22;;
47555;SDS011;33291;46.222;26.460;2022-08-24T18:00:25;24.33;;;5.68;;
47555;SDS011;33291;46.222;26.460;2022-08-24T18:02:50;18.67;;;5.10;;
47555;SDS011;33291;46.222;26.460;2022-08-24T18:05:16;27.75;;;6.03;;
47555;SDS011;33291;46.222;26.460;2022-08-24T18:07:44;21.55;;;5.13;;
47555;SDS011;33291;46.222;26.460;2022-08-24T18:10:13;26.95;;;5.35;;
47555;SDS011;33291;46.222;26.460;2022-08-24T18:12:41;27.73;;;5.72;;
47555;SDS011;33291;46.222;26.460;2022-08-24T18:15:06;26.02;;;5.28;;
47555;SDS011;33291;46.222;26.460;2022-08-24T18:17:39;26.60;;;5.45;;
47555;SDS011;33291;46.222;26.460;2022-08-24T18:20:08;25.67;;;5.88;;
47555;SDS011;33291;46.222;26.460;2022-08-24T18:22:36;20.58;;;4.93;;
47555;SDS011;33291;46.222;26.460;2022-08-24T18:25:09;34.73;;;5.53;;
47555;SDS011;33291;46.222;26.460;2022-08-24T18:27:35;36.30;;;6.45;;
47555;SDS011;33291;46.222;26.460;2022-08-24T18:30:02;25.05;;;5.97;;
47555;SDS011;33291;46.222;26.460;2022-08-24T18:32:30;22.55;;;6.00;;
47555;SDS011;33291;46.222;26.460;2022-08-24T18:34:55;23.98;;;5.47;;
47555;SDS011;33291;46.222;26.460;2022-08-24T18:37:21;36.83;;;5.65;;
47555;SDS011;33291;46.222;26.460;2022-08-24T18:39:48;26.33;;;5.43;;
47555;SDS011;33291;46.222;26.460;2022-08-24T18:42:14;30.83;;;5.40;;
47555;SDS011;33291;46.222;26.460;2022-08-24T18:44:39;23.60;;;6.05;;
47555;SDS011;33291;46.222;26.460;2022-08-24T18:47:06;19.65;;;4.70;;
47555;SDS011;33291;46.222;26.460;2022-08-24T18:49:32;19.15;;;5.95;;
47555;SDS011;33291;46.222;26.460;2022-08-24T18:51:59;31.90;;;5.78;;
47555;SDS011;33291;46.222;26.460;2022-08-24T18:54:28;25.58;;;4.75;;
47555;SDS011;33291;46.222;26.460;2022-08-24T18:57:00;28.05;;;5.70;;
47555;SDS011;33291;46.222;26.460;2022-08-24T18:59:25;23.63;;;5.40;;
47555;SDS011;33291;46.222;26.460;2022-08-24T19:01:51;27.67;;;5.65;;
47555;SDS011;33291;46.222;26.460;2022-08-24T19:04:43;24.27;;;6.18;;
47555;SDS011;33291;46.222;26.460;2022-08-24T19:07:10;21.50;;;5.38;;
47555;SDS011;33291;46.222;26.460;2022-08-24T19:09:36;26.45;;;5.93;;
47555;SDS011;33291;46.222;26.460;2022-08-24T19:12:02;18.58;;;4.93;;
47555;SDS011;33291;46.222;26.460;2022-08-24T19:14:28;30.80;;;5.57;;
47555;SDS011;33291;46.222;26.460;2022-08-24T19:16:54;24.27;;;5.43;;
47555;SDS011;33291;46.222;26.460;2022-08-24T19:19:20;21.08;;;5.30;;
47555;SDS011;33291;46.222;26.460;2022-08-24T19:21:45;27.40;;;5.07;;
47555;SDS011;33291;46.222;26.460;2022-08-24T19:24:11;22.98;;;4.97;;
47555;SDS011;33291;46.222;26.460;2022-08-24T19:26:37;23.23;;;4.95;;
47555;SDS011;33291;46.222;26.460;2022-08-24T19:29:02;26.90;;;5.72;;